sensor_id;sensor_type;location;lat;lon;timestamp;P1;durP1;ratioP1;P2;durP2;ratioP2
21170;SDS011;10743;52.160;20.910;2024-02-26T00:00:13;199.30;;;63.13;;
21170;SDS011;10743;52.160;20.910;2024-02-26T00:02:40;201.30;;;64.43;;
21170;SDS011;10743;52.160;20.910;2024-02-26T00:05:08;196.33;;;62.90;;
21170;SDS011;10743;52.160;20.910;2024-02-26T00:07:35;190.73;;;63.20;;
21170;SDS011;10743;52.160;20.910;2024-02-26T00:10:02;174.03;;;59.93;;
21170;SDS011;10743;52.160;20.910;2024-02-26T00:12:30;166.07;;;59.77;;
21170;SDS011;10743;52.160;20.910;2024-02-26T00:14:57;163.03;;;58.70;;
21170;SDS011;10743;52.160;20.910;2024-02-26T00:17:24;173.40;;;60.20;;
21170;SDS011;10743;52.160;20.910;2024-02-26T00:19:51;157.23;;;58.20;;
21170;SDS011;10743;52.160;20.910;2024-02-26T00:22:19;155.60;;;56.60;;
21170;SDS011;10743;52.160;20.910;2024-02-26T00:24:48;160.50;;;57.87;;
21170;SDS011;10743;52.160;20.910;2024-02-26T00:27:15;180.93;;;62.60;;
21170;SDS011;10743;52.160;20.910;2024-02-26T00:29:42;198.17;;;66.43;;
21170;SDS011;10743;52.160;20.910;2024-02-26T00:32:09;198.80;;;67.10;;
21170;SDS011;10743;52.160;20.910;2024-02-26T00:34:36;205.17;;;65.50;;
21170;SDS011;10743;52.160;20.910;2024-02-26T00:37:03;193.07;;;64.33;;
21170;SDS011;10743;52.160;20.910;2024-02-26T00:39:31;199.00;;;66.13;;
21170;SDS011;10743;52.160;20.910;2024-02-26T00:41:58;200.43;;;65.77;;
21170;SDS011;10743;52.160;20.910;2024-02-26T00:44:25;192.23;;;64.23;;
21170;SDS011;10743;52.160;20.910;2024-02-26T00:46:52;189.83;;;61.93;;
21170;SDS011;10743;52.160;20.910;2024-02-26T00:49:19;182.63;;;61.37;;
21170;SDS011;10743;52.160;20.910;2024-02-26T00:51:46;174.57;;;61.00;;
21170;SDS011;10743;52.160;20.910;2024-02-26T00:54:13;165.87;;;58.47;;
21170;SDS011;10743;52.160;20.910;2024-02-26T00:56:40;157.20;;;57.57;;
21170;SDS011;10743;52.160;20.910;2024-02-26T00:59:07;153.00;;;56.90;;
21170;SDS011;10743;52.160;20.910;2024-02-26T01:01:34;148.13;;;56.63;;
21170;SDS011;10743;52.160;20.910;2024-02-26T01:04:01;165.10;;;60.00;;
21170;SDS011;10743;52.160;20.910;2024-02-26T01:06:29;170.87;;;60.77;;
21170;SDS011;10743;52.160;20.910;2024-02-26T01:08:56;177.90;;;61.57;;
21170;SDS011;10743;52.160;20.910;2024-02-26T01:11:24;179.33;;;63.90;;
21170;SDS011;10743;52.160;20.910;2024-02-26T01:13:51;169.07;;;60.63;;
21170;SDS011;10743;52.160;20.910;2024-02-26T01:16:23;178.17;;;61.70;;
21170;SDS011;10743;52.160;20.910;2024-02-26T01:18:50;175.33;;;61.07;;
21170;SDS011;10743;52.160;20.910;2024-02-26T01:21:17;181.87;;;61.70;;
21170;SDS011;10743;52.160;20.910;2024-02-26T01:23:45;193.10;;;63.17;;
21170;SDS011;10743;52.160;20.910;2024-02-26T01:26:12;186.67;;;63.37;;
21170;SDS011;10743;52.160;20.910;2024-02-26T01:28:38;183.03;;;61.87;;
21170;SDS011;10743;52.160;20.910;2024-02-26T01:31:05;178.83;;;60.77;;
21170;SDS011;10743;52.160;20.910;2024-02-26T01:33:34;180.97;;;60.23;;
21170;SDS011;10743;52.160;20.910;2024-02-26T01:36:02;185.23;;;60.73;;
21170;SDS011;10743;52.160;20.910;2024-02-26T01:38:30;180.87;;;60.93;;
21170;SDS011;10743;52.160;20.910;2024-02-26T01:40:57;184.77;;;60.50;;
21170;SDS011;10743;52.160;20.910;2024-02-26T01:43:24;187.33;;;60.93;;
21170;SDS011;10743;52.160;20.910;2024-02-26T01:45:51;187.20;;;61.20;;
21170;SDS011;10743;52.160;20.910;2024-02-26T01:48:18;183.17;;;61.17;;
21170;SDS011;10743;52.160;20.910;2024-02-26T01:50:45;189.10;;;61.77;;
21170;SDS011;10743;52.160;20.910;2024-02-26T01:53:12;177.93;;;61.73;;
21170;SDS011;10743;52.160;20.910;2024-02-26T01:55:40;178.47;;;60.23;;
21170;SDS011;10743;52.160;20.910;2024-02-26T01:58:07;184.20;;;62.40;;
21170;SDS011;10743;52.160;20.910;2024-02-26T02:00:35;191.47;;;62.73;;
21170;SDS011;10743;52.160;20.910;2024-02-26T02:03:02;192.00;;;64.00;;
21170;SDS011;10743;52.160;20.910;2024-02-26T02:05:30;183.97;;;62.00;;
21170;SDS011;10743;52.160;20.910;2024-02-26T02:07:57;183.83;;;61.77;;
21170;SDS011;10743;52.160;20.910;2024-02-26T02:10:26;185.63;;;62.10;;
21170;SDS011;10743;52.160;20.910;2024-02-26T02:12:54;179.50;;;60.70;;
21170;SDS011;10743;52.160;20.910;2024-02-26T02:15:21;184.23;;;62.03;;
21170;SDS011;10743;52.160;20.910;2024-02-26T02:17:48;187.07;;;61.43;;
21170;SDS011;10743;52.160;20.910;2024-02-26T02:20:16;192.10;;;61.90;;
21170;SDS011;10743;52.160;20.910;2024-02-26T02:22:45;184.53;;;61.17;;
21170;SDS011;10743;52.160;20.910;2024-02-26T02:25:12;179.77;;;60.37;;
21170;SDS011;10743;52.160;20.910;2024-02-26T02:27:40;169.97;;;58.93;;
21170;SDS011;10743;52.160;20.910;2024-02-26T02:30:09;174.63;;;59.83;;
21170;SDS011;10743;52.160;20.910;2024-02-26T02:32:37;183.60;;;61.27;;
21170;SDS011;10743;52.160;20.910;2024-02-26T02:35:09;171.87;;;59.93;;
21170;SDS011;10743;52.160;20.910;2024-02-26T02:37:37;177.73;;;60.27;;
21170;SDS011;10743;52.160;20.910;2024-02-26T02:40:04;172.43;;;60.33;;
21170;SDS011;10743;52.160;20.910;2024-02-26T02:42:32;168.10;;;59.07;;
21170;SDS011;10743;52.160;20.910;2024-02-26T02:44:59;179.87;;;59.90;;
21170;SDS011;10743;52.160;20.910;2024-02-26T02:47:26;178.97;;;60.37;;
21170;SDS011;10743;52.160;20.910;2024-02-26T02:49:53;181.13;;;60.17;;
21170;SDS011;10743;52.160;20.910;2024-02-26T02:52:20;178.93;;;60.10;;
21170;SDS011;10743;52.160;20.910;2024-02-26T02:54:47;175.40;;;59.50;;
21170;SDS011;10743;52.160;20.910;2024-02-26T02:57:14;171.33;;;59.07;;
21170;SDS011;10743;52.160;20.910;2024-02-26T02:59:41;175.33;;;59.63;;
21170;SDS011;10743;52.160;20.910;2024-02-26T03:02:08;167.90;;;58.73;;
21170;SDS011;10743;52.160;20.910;2024-02-26T03:04:35;172.20;;;60.00;;
21170;SDS011;10743;52.160;20.910;2024-02-26T03:07:02;183.97;;;60.30;;
21170;SDS011;10743;52.160;20.910;2024-02-26T03:09:29;171.37;;;58.97;;
21170;SDS011;10743;52.160;20.910;2024-02-26T03:11:57;166.40;;;58.27;;
21170;SDS011;10743;52.160;20.910;2024-02-26T03:14:24;178.57;;;60.20;;
21170;SDS011;10743;52.160;20.910;2024-02-26T03:16:54;176.33;;;60.10;;
21170;SDS011;10743;52.160;20.910;2024-02-26T03:19:21;172.20;;;58.67;;
21170;SDS011;10743;52.160;20.910;2024-02-26T03:21:50;174.13;;;58.83;;
21170;SDS011;10743;52.160;20.910;2024-02-26T03:24:17;174.00;;;58.77;;
21170;SDS011;10743;52.160;20.910;2024-02-26T03:26:45;175.13;;;59.30;;
21170;SDS011;10743;52.160;20.910;2024-02-26T03:29:12;174.97;;;60.13;;
21170;SDS011;10743;52.160;20.910;2024-02-26T03:31:39;174.33;;;59.50;;
21170;SDS011;10743;52.160;20.910;2024-02-26T03:34:06;174.10;;;59.23;;
21170;SDS011;10743;52.160;20.910;2024-02-26T03:36:33;173.80;;;58.73;;
21170;SDS011;10743;52.160;20.910;2024-02-26T03:39:00;176.00;;;59.57;;
21170;SDS011;10743;52.160;20.910;2024-02-26T03:41:30;187.33;;;59.50;;
21170;SDS011;10743;52.160;20.910;2024-02-26T03:43:58;174.63;;;59.83;;
21170;SDS011;10743;52.160;20.910;2024-02-26T03:46:25;186.60;;;60.03;;
21170;SDS011;10743;52.160;20.910;2024-02-26T03:48:52;189.23;;;60.73;;
21170;SDS011;10743;52.160;20.910;2024-02-26T03:51:19;181.57;;;59.57;;
21170;SDS011;10743;52.160;20.910;2024-02-26T03:53:47;184.63;;;61.23;;
21170;SDS011;10743;52.160;20.910;2024-02-26T03:56:14;190.23;;;60.57;;
21170;SDS011;10743;52.160;20.910;2024-02-26T03:58:41;176.20;;;58.63;;
21170;SDS011;10743;52.160;20.910;2024-02-26T04:01:08;180.30;;;59.90;;
21170;SDS011;10743;52.160;20.910;2024-02-26T04:03:36;178.57;;;59.03;;
21170;SDS011;10743;52.160;20.910;2024-02-26T04:06:03;177.07;;;58.60;;
21170;SDS011;10743;52.160;20.910;2024-02-26T04:08:30;180.77;;;60.20;;
21170;SDS011;10743;52.160;20.910;2024-02-26T04:10:57;175.60;;;58.60;;
21170;SDS011;10743;52.160;20.910;2024-02-26T04:13:25;182.10;;;59.40;;
21170;SDS011;10743;52.160;20.910;2024-02-26T04:15:52;182.27;;;59.50;;
21170;SDS011;10743;52.160;20.910;2024-02-26T04:18:19;179.83;;;58.83;;
21170;SDS011;10743;52.160;20.910;2024-02-26T04:20:46;178.17;;;58.83;;
21170;SDS011;10743;52.160;20.910;2024-02-26T04:23:13;176.53;;;57.40;;
21170;SDS011;10743;52.160;20.910;2024-02-26T04:25:40;179.80;;;58.97;;
21170;SDS011;10743;52.160;20.910;2024-02-26T04:28:07;180.70;;;60.50;;
21170;SDS011;10743;52.160;20.910;2024-02-26T04:30:34;178.87;;;59.57;;
21170;SDS011;10743;52.160;20.910;2024-02-26T04:33:01;182.37;;;59.70;;
21170;SDS011;10743;52.160;20.910;2024-02-26T04:35:28;189.17;;;60.90;;
21170;SDS011;10743;52.160;20.910;2024-02-26T04:37:55;187.07;;;61.30;;
21170;SDS011;10743;52.160;20.910;2024-02-26T04:40:23;175.40;;;59.20;;
21170;SDS011;10743;52.160;20.910;2024-02-26T04:42:50;184.57;;;61.23;;
21170;SDS011;10743;52.160;20.910;2024-02-26T04:45:17;177.50;;;59.50;;
21170;SDS011;10743;52.160;20.910;2024-02-26T04:47:44;180.30;;;59.97;;
21170;SDS011;10743;52.160;20.910;2024-02-26T04:50:13;185.70;;;60.20;;
21170;SDS011;10743;52.160;20.910;2024-02-26T04:52:40;182.60;;;59.87;;
21170;SDS011;10743;52.160;20.910;2024-02-26T04:55:07;179.10;;;60.13;;
21170;SDS011;10743;52.160;20.910;2024-02-26T04:57:34;180.17;;;59.30;;
21170;SDS011;10743;52.160;20.910;2024-02-26T05:00:01;180.00;;;59.50;;
21170;SDS011;10743;52.160;20.910;2024-02-26T05:02:31;178.53;;;59.57;;
21170;SDS011;10743;52.160;20.910;2024-02-26T05:04:59;183.57;;;59.43;;
21170;SDS011;10743;52.160;20.910;2024-02-26T05:07:26;177.33;;;58.10;;
21170;SDS011;10743;52.160;20.910;2024-02-26T05:09:53;181.83;;;59.47;;
21170;SDS011;10743;52.160;20.910;2024-02-26T05:12:21;180.77;;;59.20;;
21170;SDS011;10743;52.160;20.910;2024-02-26T05:14:48;172.97;;;57.83;;
21170;SDS011;10743;52.160;20.910;2024-02-26T05:17:15;165.23;;;56.87;;
21170;SDS011;10743;52.160;20.910;2024-02-26T05:19:42;175.00;;;57.57;;
21170;SDS011;10743;52.160;20.910;2024-02-26T05:22:09;172.67;;;57.30;;
21170;SDS011;10743;52.160;20.910;2024-02-26T05:24:37;172.03;;;57.27;;
21170;SDS011;10743;52.160;20.910;2024-02-26T05:27:05;166.20;;;58.07;;
21170;SDS011;10743;52.160;20.910;2024-02-26T05:29:32;163.87;;;57.77;;
21170;SDS011;10743;52.160;20.910;2024-02-26T05:31:59;167.37;;;57.97;;
21170;SDS011;10743;52.160;20.910;2024-02-26T05:34:26;169.20;;;59.20;;
21170;SDS011;10743;52.160;20.910;2024-02-26T05:36:53;170.27;;;65.53;;
21170;SDS011;10743;52.160;20.910;2024-02-26T05:39:20;161.77;;;56.80;;
21170;SDS011;10743;52.160;20.910;2024-02-26T05:41:47;166.03;;;57.83;;
21170;SDS011;10743;52.160;20.910;2024-02-26T05:44:16;169.17;;;58.30;;
21170;SDS011;10743;52.160;20.910;2024-02-26T05:46:43;164.63;;;57.47;;
21170;SDS011;10743;52.160;20.910;2024-02-26T05:49:10;169.60;;;58.07;;
21170;SDS011;10743;52.160;20.910;2024-02-26T05:51:37;168.80;;;58.53;;
21170;SDS011;10743;52.160;20.910;2024-02-26T05:54:04;162.67;;;57.50;;
21170;SDS011;10743;52.160;20.910;2024-02-26T05:56:31;164.47;;;57.87;;
21170;SDS011;10743;52.160;20.910;2024-02-26T05:58:58;163.03;;;57.70;;
21170;SDS011;10743;52.160;20.910;2024-02-26T06:01:25;162.23;;;57.00;;
21170;SDS011;10743;52.160;20.910;2024-02-26T06:03:52;160.43;;;58.17;;
21170;SDS011;10743;52.160;20.910;2024-02-26T06:06:19;164.27;;;57.47;;
21170;SDS011;10743;52.160;20.910;2024-02-26T06:08:49;178.87;;;59.83;;
21170;SDS011;10743;52.160;20.910;2024-02-26T06:11:16;177.63;;;60.43;;
21170;SDS011;10743;52.160;20.910;2024-02-26T06:13:44;184.33;;;61.33;;
21170;SDS011;10743;52.160;20.910;2024-02-26T06:16:11;180.90;;;60.30;;
21170;SDS011;10743;52.160;20.910;2024-02-26T06:18:38;174.57;;;60.10;;
21170;SDS011;10743;52.160;20.910;2024-02-26T06:21:08;168.50;;;58.97;;
21170;SDS011;10743;52.160;20.910;2024-02-26T06:23:37;190.80;;;66.50;;
21170;SDS011;10743;52.160;20.910;2024-02-26T06:26:06;184.37;;;63.70;;
21170;SDS011;10743;52.160;20.910;2024-02-26T06:28:33;191.83;;;65.50;;
21170;SDS011;10743;52.160;20.910;2024-02-26T06:31:01;182.47;;;63.20;;
21170;SDS011;10743;52.160;20.910;2024-02-26T06:33:29;190.37;;;64.63;;
21170;SDS011;10743;52.160;20.910;2024-02-26T06:35:56;180.43;;;62.70;;
21170;SDS011;10743;52.160;20.910;2024-02-26T06:38:23;194.33;;;68.83;;
21170;SDS011;10743;52.160;20.910;2024-02-26T06:40:50;189.27;;;66.77;;
21170;SDS011;10743;52.160;20.910;2024-02-26T06:43:17;191.97;;;65.37;;
21170;SDS011;10743;52.160;20.910;2024-02-26T06:45:44;186.27;;;62.60;;
21170;SDS011;10743;52.160;20.910;2024-02-26T06:48:11;179.90;;;60.67;;
21170;SDS011;10743;52.160;20.910;2024-02-26T06:50:38;180.87;;;61.33;;
21170;SDS011;10743;52.160;20.910;2024-02-26T06:53:05;177.13;;;62.33;;
21170;SDS011;10743;52.160;20.910;2024-02-26T06:55:33;179.63;;;63.20;;
21170;SDS011;10743;52.160;20.910;2024-02-26T06:58:00;187.33;;;64.50;;
21170;SDS011;10743;52.160;20.910;2024-02-26T07:00:27;286.80;;;75.33;;
21170;SDS011;10743;52.160;20.910;2024-02-26T07:02:54;189.43;;;64.37;;
21170;SDS011;10743;52.160;20.910;2024-02-26T07:05:22;178.50;;;62.23;;
21170;SDS011;10743;52.160;20.910;2024-02-26T07:07:49;178.57;;;61.53;;
21170;SDS011;10743;52.160;20.910;2024-02-26T07:10:16;170.43;;;60.40;;
21170;SDS011;10743;52.160;20.910;2024-02-26T07:12:43;160.63;;;58.40;;
21170;SDS011;10743;52.160;20.910;2024-02-26T07:15:10;167.53;;;60.53;;
21170;SDS011;10743;52.160;20.910;2024-02-26T07:17:37;158.90;;;58.87;;
21170;SDS011;10743;52.160;20.910;2024-02-26T07:20:08;158.33;;;57.27;;
21170;SDS011;10743;52.160;20.910;2024-02-26T07:22:37;151.53;;;57.07;;
21170;SDS011;10743;52.160;20.910;2024-02-26T07:25:04;152.00;;;56.20;;
21170;SDS011;10743;52.160;20.910;2024-02-26T07:27:34;147.37;;;55.67;;
21170;SDS011;10743;52.160;20.910;2024-02-26T07:30:01;143.10;;;55.37;;
21170;SDS011;10743;52.160;20.910;2024-02-26T07:32:29;144.43;;;56.63;;
21170;SDS011;10743;52.160;20.910;2024-02-26T07:34:56;146.03;;;56.07;;
21170;SDS011;10743;52.160;20.910;2024-02-26T07:37:23;139.20;;;53.97;;
21170;SDS011;10743;52.160;20.910;2024-02-26T07:39:50;131.13;;;53.30;;
21170;SDS011;10743;52.160;20.910;2024-02-26T07:42:17;127.70;;;53.87;;
21170;SDS011;10743;52.160;20.910;2024-02-26T07:44:44;135.07;;;53.53;;
21170;SDS011;10743;52.160;20.910;2024-02-26T07:47:11;149.17;;;56.10;;
21170;SDS011;10743;52.160;20.910;2024-02-26T07:49:39;145.87;;;56.13;;
21170;SDS011;10743;52.160;20.910;2024-02-26T07:52:07;152.23;;;57.47;;
21170;SDS011;10743;52.160;20.910;2024-02-26T07:54:34;153.63;;;58.63;;
21170;SDS011;10743;52.160;20.910;2024-02-26T07:57:01;148.60;;;56.53;;
21170;SDS011;10743;52.160;20.910;2024-02-26T07:59:31;147.97;;;56.87;;
21170;SDS011;10743;52.160;20.910;2024-02-26T08:01:58;147.20;;;56.97;;
21170;SDS011;10743;52.160;20.910;2024-02-26T08:04:26;138.40;;;56.10;;
21170;SDS011;10743;52.160;20.910;2024-02-26T08:06:54;169.07;;;59.50;;
21170;SDS011;10743;52.160;20.910;2024-02-26T08:09:21;142.07;;;56.27;;
21170;SDS011;10743;52.160;20.910;2024-02-26T08:11:48;139.53;;;55.60;;
21170;SDS011;10743;52.160;20.910;2024-02-26T08:14:15;144.60;;;57.67;;
21170;SDS011;10743;52.160;20.910;2024-02-26T08:16:42;138.43;;;55.60;;
21170;SDS011;10743;52.160;20.910;2024-02-26T08:19:09;134.67;;;55.33;;
21170;SDS011;10743;52.160;20.910;2024-02-26T08:21:38;142.77;;;56.00;;
21170;SDS011;10743;52.160;20.910;2024-02-26T08:24:05;127.83;;;54.60;;
21170;SDS011;10743;52.160;20.910;2024-02-26T08:26:32;130.50;;;54.70;;
21170;SDS011;10743;52.160;20.910;2024-02-26T08:28:59;128.97;;;53.93;;
21170;SDS011;10743;52.160;20.910;2024-02-26T08:31:26;131.73;;;54.93;;
21170;SDS011;10743;52.160;20.910;2024-02-26T08:33:54;139.33;;;55.50;;
21170;SDS011;10743;52.160;20.910;2024-02-26T08:36:21;127.63;;;54.27;;
21170;SDS011;10743;52.160;20.910;2024-02-26T08:38:48;118.37;;;52.50;;
21170;SDS011;10743;52.160;20.910;2024-02-26T08:41:15;127.63;;;54.57;;
21170;SDS011;10743;52.160;20.910;2024-02-26T08:43:42;115.27;;;51.80;;
21170;SDS011;10743;52.160;20.910;2024-02-26T08:46:09;122.57;;;53.93;;
21170;SDS011;10743;52.160;20.910;2024-02-26T08:48:39;116.73;;;52.10;;
21170;SDS011;10743;52.160;20.910;2024-02-26T08:51:07;104.00;;;49.53;;
21170;SDS011;10743;52.160;20.910;2024-02-26T08:53:35;95.82;;;47.88;;
21170;SDS011;10743;52.160;20.910;2024-02-26T08:56:09;101.33;;;48.70;;
21170;SDS011;10743;52.160;20.910;2024-02-26T08:58:44;97.70;;;47.97;;
21170;SDS011;10743;52.160;20.910;2024-02-26T09:01:15;100.10;;;48.83;;
21170;SDS011;10743;52.160;20.910;2024-02-26T09:03:42;101.27;;;49.17;;
21170;SDS011;10743;52.160;20.910;2024-02-26T09:06:10;99.22;;;48.38;;
21170;SDS011;10743;52.160;20.910;2024-02-26T09:08:40;213.43;;;64.03;;
21170;SDS011;10743;52.160;20.910;2024-02-26T09:11:07;98.95;;;48.17;;
21170;SDS011;10743;52.160;20.910;2024-02-26T09:13:36;103.10;;;49.92;;
21170;SDS011;10743;52.160;20.910;2024-02-26T09:16:04;104.10;;;50.53;;
21170;SDS011;10743;52.160;20.910;2024-02-26T09:18:32;104.55;;;49.25;;
21170;SDS011;10743;52.160;20.910;2024-02-26T09:20:59;102.53;;;49.60;;
21170;SDS011;10743;52.160;20.910;2024-02-26T09:23:30;99.47;;;48.83;;
21170;SDS011;10743;52.160;20.910;2024-02-26T09:25:57;95.15;;;48.38;;
21170;SDS011;10743;52.160;20.910;2024-02-26T09:28:24;94.03;;;48.47;;
21170;SDS011;10743;52.160;20.910;2024-02-26T09:30:51;89.63;;;46.78;;
21170;SDS011;10743;52.160;20.910;2024-02-26T09:33:18;99.25;;;50.47;;
21170;SDS011;10743;52.160;20.910;2024-02-26T09:35:46;93.90;;;48.55;;
21170;SDS011;10743;52.160;20.910;2024-02-26T09:38:13;91.03;;;48.05;;
21170;SDS011;10743;52.160;20.910;2024-02-26T09:40:40;85.10;;;46.47;;
21170;SDS011;10743;52.160;20.910;2024-02-26T09:43:07;87.60;;;47.35;;
21170;SDS011;10743;52.160;20.910;2024-02-26T09:45:40;92.78;;;48.10;;
21170;SDS011;10743;52.160;20.910;2024-02-26T09:48:08;89.45;;;47.08;;
21170;SDS011;10743;52.160;20.910;2024-02-26T09:50:40;78.60;;;44.30;;
21170;SDS011;10743;52.160;20.910;2024-02-26T09:53:10;68.47;;;41.53;;
21170;SDS011;10743;52.160;20.910;2024-02-26T09:55:38;61.35;;;39.65;;
21170;SDS011;10743;52.160;20.910;2024-02-26T09:58:06;68.80;;;41.50;;
21170;SDS011;10743;52.160;20.910;2024-02-26T10:00:36;88.03;;;46.20;;
21170;SDS011;10743;52.160;20.910;2024-02-26T10:03:06;85.63;;;46.15;;
21170;SDS011;10743;52.160;20.910;2024-02-26T10:05:41;84.22;;;45.55;;
21170;SDS011;10743;52.160;20.910;2024-02-26T10:08:10;82.78;;;45.55;;
21170;SDS011;10743;52.160;20.910;2024-02-26T10:10:39;66.70;;;41.05;;
21170;SDS011;10743;52.160;20.910;2024-02-26T10:13:06;77.47;;;45.95;;
21170;SDS011;10743;52.160;20.910;2024-02-26T10:15:37;77.65;;;43.80;;
21170;SDS011;10743;52.160;20.910;2024-02-26T10:18:05;76.13;;;43.67;;
21170;SDS011;10743;52.160;20.910;2024-02-26T10:20:33;79.03;;;44.08;;
21170;SDS011;10743;52.160;20.910;2024-02-26T10:23:03;85.15;;;45.20;;
21170;SDS011;10743;52.160;20.910;2024-02-26T10:25:31;87.88;;;47.03;;
21170;SDS011;10743;52.160;20.910;2024-02-26T10:27:59;92.63;;;46.75;;
21170;SDS011;10743;52.160;20.910;2024-02-26T10:30:30;84.38;;;44.72;;
21170;SDS011;10743;52.160;20.910;2024-02-26T10:32:57;87.22;;;45.55;;
21170;SDS011;10743;52.160;20.910;2024-02-26T10:35:26;99.22;;;49.17;;
21170;SDS011;10743;52.160;20.910;2024-02-26T10:37:55;86.47;;;45.88;;
21170;SDS011;10743;52.160;20.910;2024-02-26T10:40:22;98.65;;;49.00;;
21170;SDS011;10743;52.160;20.910;2024-02-26T10:42:49;91.57;;;46.80;;
21170;SDS011;10743;52.160;20.910;2024-02-26T10:45:16;94.63;;;47.83;;
21170;SDS011;10743;52.160;20.910;2024-02-26T10:47:44;87.97;;;46.03;;
21170;SDS011;10743;52.160;20.910;2024-02-26T10:50:12;87.25;;;45.30;;
21170;SDS011;10743;52.160;20.910;2024-02-26T10:52:43;75.35;;;43.17;;
21170;SDS011;10743;52.160;20.910;2024-02-26T10:55:13;73.85;;;42.78;;
21170;SDS011;10743;52.160;20.910;2024-02-26T10:57:47;79.38;;;43.33;;
21170;SDS011;10743;52.160;20.910;2024-02-26T11:00:17;73.75;;;41.95;;
21170;SDS011;10743;52.160;20.910;2024-02-26T11:02:45;75.70;;;41.05;;
21170;SDS011;10743;52.160;20.910;2024-02-26T11:05:15;71.72;;;40.35;;
21170;SDS011;10743;52.160;20.910;2024-02-26T11:07:44;73.15;;;41.80;;
21170;SDS011;10743;52.160;20.910;2024-02-26T11:10:13;70.53;;;41.30;;
21170;SDS011;10743;52.160;20.910;2024-02-26T11:12:41;77.82;;;46.33;;
21170;SDS011;10743;52.160;20.910;2024-02-26T11:15:09;75.32;;;42.33;;
21170;SDS011;10743;52.160;20.910;2024-02-26T11:17:37;78.47;;;43.03;;
21170;SDS011;10743;52.160;20.910;2024-02-26T11:20:05;71.97;;;40.80;;
21170;SDS011;10743;52.160;20.910;2024-02-26T11:22:36;75.23;;;41.53;;
21170;SDS011;10743;52.160;20.910;2024-02-26T11:25:03;73.38;;;41.17;;
21170;SDS011;10743;52.160;20.910;2024-02-26T11:27:32;78.28;;;42.40;;
21170;SDS011;10743;52.160;20.910;2024-02-26T11:30:14;71.53;;;39.55;;
21170;SDS011;10743;52.160;20.910;2024-02-26T11:32:44;77.20;;;42.00;;
21170;SDS011;10743;52.160;20.910;2024-02-26T11:35:13;88.38;;;44.08;;
21170;SDS011;10743;52.160;20.910;2024-02-26T11:38:04;95.13;;;45.63;;
21170;SDS011;10743;52.160;20.910;2024-02-26T11:40:33;83.43;;;43.97;;
21170;SDS011;10743;52.160;20.910;2024-02-26T11:43:06;79.45;;;42.50;;
21170;SDS011;10743;52.160;20.910;2024-02-26T11:48:12;76.88;;;42.17;;
21170;SDS011;10743;52.160;20.910;2024-02-26T11:50:48;79.20;;;42.97;;
21170;SDS011;10743;52.160;20.910;2024-02-26T11:53:19;75.60;;;42.00;;
21170;SDS011;10743;52.160;20.910;2024-02-26T11:55:48;75.63;;;41.22;;
21170;SDS011;10743;52.160;20.910;2024-02-26T11:58:46;78.97;;;42.53;;
21170;SDS011;10743;52.160;20.910;2024-02-26T12:04:07;182.13;;;53.78;;
21170;SDS011;10743;52.160;20.910;2024-02-26T12:09:38;57.42;;;36.20;;
21170;SDS011;10743;52.160;20.910;2024-02-26T12:12:08;51.58;;;33.85;;
21170;SDS011;10743;52.160;20.910;2024-02-26T12:14:38;47.67;;;32.90;;
21170;SDS011;10743;52.160;20.910;2024-02-26T12:17:07;54.00;;;34.95;;
21170;SDS011;10743;52.160;20.910;2024-02-26T12:19:45;53.60;;;35.47;;
21170;SDS011;10743;52.160;20.910;2024-02-26T12:22:13;29.23;;;25.95;;
21170;SDS011;10743;52.160;20.910;2024-02-26T12:24:42;45.72;;;33.00;;
21170;SDS011;10743;52.160;20.910;2024-02-26T12:27:09;60.15;;;37.20;;
21170;SDS011;10743;52.160;20.910;2024-02-26T12:29:37;54.70;;;35.38;;
21170;SDS011;10743;52.160;20.910;2024-02-26T12:32:04;50.35;;;34.13;;
21170;SDS011;10743;52.160;20.910;2024-02-26T12:34:33;54.47;;;34.50;;
21170;SDS011;10743;52.160;20.910;2024-02-26T12:37:02;52.22;;;34.92;;
21170;SDS011;10743;52.160;20.910;2024-02-26T12:39:29;51.35;;;34.35;;
21170;SDS011;10743;52.160;20.910;2024-02-26T12:41:57;49.15;;;33.92;;
21170;SDS011;10743;52.160;20.910;2024-02-26T12:44:26;35.92;;;28.80;;
21170;SDS011;10743;52.160;20.910;2024-02-26T12:47:00;36.30;;;29.48;;
21170;SDS011;10743;52.160;20.910;2024-02-26T12:49:31;40.55;;;30.83;;
21170;SDS011;10743;52.160;20.910;2024-02-26T12:51:59;41.13;;;30.63;;
21170;SDS011;10743;52.160;20.910;2024-02-26T12:54:32;60.25;;;37.08;;
21170;SDS011;10743;52.160;20.910;2024-02-26T12:57:05;48.45;;;33.20;;
21170;SDS011;10743;52.160;20.910;2024-02-26T12:59:34;35.13;;;27.05;;
21170;SDS011;10743;52.160;20.910;2024-02-26T13:02:03;52.60;;;35.10;;
21170;SDS011;10743;52.160;20.910;2024-02-26T13:04:33;38.67;;;30.25;;
21170;SDS011;10743;52.160;20.910;2024-02-26T13:07:03;27.65;;;24.83;;
21170;SDS011;10743;52.160;20.910;2024-02-26T13:09:35;31.88;;;28.05;;
21170;SDS011;10743;52.160;20.910;2024-02-26T13:12:06;37.70;;;27.83;;
21170;SDS011;10743;52.160;20.910;2024-02-26T13:14:34;45.25;;;31.45;;
21170;SDS011;10743;52.160;20.910;2024-02-26T13:17:01;25.60;;;22.60;;
21170;SDS011;10743;52.160;20.910;2024-02-26T13:19:29;40.42;;;29.98;;
21170;SDS011;10743;52.160;20.910;2024-02-26T13:22:03;40.08;;;30.40;;
21170;SDS011;10743;52.160;20.910;2024-02-26T13:24:34;40.03;;;30.15;;
21170;SDS011;10743;52.160;20.910;2024-02-26T13:27:02;45.63;;;32.65;;
21170;SDS011;10743;52.160;20.910;2024-02-26T13:29:31;44.63;;;31.63;;
21170;SDS011;10743;52.160;20.910;2024-02-26T13:31:58;47.42;;;32.80;;
21170;SDS011;10743;52.160;20.910;2024-02-26T13:34:26;34.03;;;25.35;;
21170;SDS011;10743;52.160;20.910;2024-02-26T13:36:54;35.47;;;28.08;;
21170;SDS011;10743;52.160;20.910;2024-02-26T13:39:25;46.35;;;31.80;;
21170;SDS011;10743;52.160;20.910;2024-02-26T13:41:54;47.38;;;31.90;;
21170;SDS011;10743;52.160;20.910;2024-02-26T13:44:21;46.53;;;32.88;;
21170;SDS011;10743;52.160;20.910;2024-02-26T13:46:49;43.15;;;31.05;;
21170;SDS011;10743;52.160;20.910;2024-02-26T13:49:16;26.52;;;23.00;;
21170;SDS011;10743;52.160;20.910;2024-02-26T13:51:44;39.28;;;29.23;;
21170;SDS011;10743;52.160;20.910;2024-02-26T13:54:11;46.90;;;33.10;;
21170;SDS011;10743;52.160;20.910;2024-02-26T13:56:40;28.60;;;23.30;;
21170;SDS011;10743;52.160;20.910;2024-02-26T13:59:10;13.02;;;11.75;;
21170;SDS011;10743;52.160;20.910;2024-02-26T14:01:37;12.05;;;7.53;;
21170;SDS011;10743;52.160;20.910;2024-02-26T14:04:04;89.70;;;16.85;;
21170;SDS011;10743;52.160;20.910;2024-02-26T14:06:32;18.88;;;14.25;;
21170;SDS011;10743;52.160;20.910;2024-02-26T14:08:59;15.95;;;14.35;;
21170;SDS011;10743;52.160;20.910;2024-02-26T14:11:26;6.60;;;4.57;;
21170;SDS011;10743;52.160;20.910;2024-02-26T14:13:55;7.65;;;5.70;;